sensor_id;sensor_type;location;lat;lon;timestamp;pressure;altitude;pressure_sealevel;temperature;humidity
35694;BME280;21812;55.536;37.664;2023-04-27T00:02:16;99045.66;;;12.83;57.95
35694;BME280;21812;55.536;37.664;2023-04-27T00:04:42;99050.19;;;12.58;58.58
35694;BME280;21812;55.536;37.664;2023-04-27T00:07:08;99053.78;;;12.45;59.02
35694;BME280;21812;55.536;37.664;2023-04-27T00:09:34;99040.91;;;12.35;59.46
35694;BME280;21812;55.536;37.664;2023-04-27T00:12:00;99048.22;;;12.21;58.73
35694;BME280;21812;55.536;37.664;2023-04-27T00:14:25;99053.50;;;12.28;61.83
35694;BME280;21812;55.536;37.664;2023-04-27T00:16:53;99055.53;;;12.83;63.10
35694;BME280;21812;55.536;37.664;2023-04-27T00:19:19;99050.13;;;13.26;60.17
35694;BME280;21812;55.536;37.664;2023-04-27T00:21:45;99046.19;;;13.47;58.76
35694;BME280;21812;55.536;37.664;2023-04-27T00:24:11;99044.56;;;13.46;57.95
35694;BME280;21812;55.536;37.664;2023-04-27T00:26:36;99037.06;;;13.37;57.53
35694;BME280;21812;55.536;37.664;2023-04-27T00:29:02;99041.47;;;13.31;56.63
35694;BME280;21812;55.536;37.664;2023-04-27T00:31:28;99048.34;;;13.02;55.93
35694;BME280;21812;55.536;37.664;2023-04-27T00:33:55;99038.00;;;12.11;56.80
35694;BME280;21812;55.536;37.664;2023-04-27T00:36:20;99056.06;;;11.78;59.33
35694;BME280;21812;55.536;37.664;2023-04-27T00:38:47;99061.56;;;11.51;60.49
35694;BME280;21812;55.536;37.664;2023-04-27T00:41:13;99058.41;;;11.61;61.44
35694;BME280;21812;55.536;37.664;2023-04-27T00:43:43;99043.56;;;11.71;61.91
35694;BME280;21812;55.536;37.664;2023-04-27T00:46:13;99032.94;;;11.58;62.72
35694;BME280;21812;55.536;37.664;2023-04-27T00:48:40;99060.63;;;12.16;62.80
35694;BME280;21812;55.536;37.664;2023-04-27T00:51:06;99062.06;;;12.43;58.84
35694;BME280;21812;55.536;37.664;2023-04-27T00:53:33;99056.88;;;12.48;58.74
35694;BME280;21812;55.536;37.664;2023-04-27T00:56:00;99057.81;;;12.61;60.08
35694;BME280;21812;55.536;37.664;2023-04-27T00:58:27;99058.31;;;12.51;57.47
35694;BME280;21812;55.536;37.664;2023-04-27T01:00:53;99060.25;;;12.37;57.47
35694;BME280;21812;55.536;37.664;2023-04-27T01:03:19;99061.56;;;11.96;58.66
35694;BME280;21812;55.536;37.664;2023-04-27T01:05:45;99058.81;;;11.71;60.17
35694;BME280;21812;55.536;37.664;2023-04-27T01:08:11;99063.47;;;11.82;61.93
35694;BME280;21812;55.536;37.664;2023-04-27T01:10:36;99061.19;;;12.24;62.11
35694;BME280;21812;55.536;37.664;2023-04-27T01:13:02;99060.31;;;12.56;58.66
35694;BME280;21812;55.536;37.664;2023-04-27T01:15:29;99051.38;;;12.43;56.84
35694;BME280;21812;55.536;37.664;2023-04-27T01:17:57;99041.78;;;11.97;58.13
35694;BME280;21812;55.536;37.664;2023-04-27T01:20:23;99052.97;;;11.81;59.51
35694;BME280;21812;55.536;37.664;2023-04-27T01:22:48;99046.03;;;12.11;62.45
35694;BME280;21812;55.536;37.664;2023-04-27T01:25:14;99048.66;;;12.18;57.61
35694;BME280;21812;55.536;37.664;2023-04-27T01:27:40;99064.25;;;11.96;58.17
35694;BME280;21812;55.536;37.664;2023-04-27T01:30:06;99065.97;;;11.25;58.79
35694;BME280;21812;55.536;37.664;2023-04-27T01:32:32;99068.22;;;11.28;62.56
35694;BME280;21812;55.536;37.664;2023-04-27T01:34:58;99042.66;;;11.46;61.78
35694;BME280;21812;55.536;37.664;2023-04-27T01:37:25;99063.47;;;12.21;61.92
35694;BME280;21812;55.536;37.664;2023-04-27T01:39:51;99054.88;;;12.37;57.86
35694;BME280;21812;55.536;37.664;2023-04-27T01:42:17;99056.91;;;12.17;56.64
35694;BME280;21812;55.536;37.664;2023-04-27T01:44:42;99057.53;;;11.73;58.27
35694;BME280;21812;55.536;37.664;2023-04-27T01:47:08;99069.22;;;11.34;59.39
35694;BME280;21812;55.536;37.664;2023-04-27T01:49:34;99069.16;;;11.54;62.40
35694;BME280;21812;55.536;37.664;2023-04-27T01:51:59;99062.91;;;11.73;60.58
35694;BME280;21812;55.536;37.664;2023-04-27T01:54:25;99067.44;;;11.73;57.54
35694;BME280;21812;55.536;37.664;2023-04-27T01:56:51;99068.38;;;11.40;58.07
35694;BME280;21812;55.536;37.664;2023-04-27T01:59:17;99066.09;;;11.44;62.32
35694;BME280;21812;55.536;37.664;2023-04-27T02:01:43;99068.81;;;11.30;58.80
35694;BME280;21812;55.536;37.664;2023-04-27T02:04:09;99072.13;;;11.19;58.65
35694;BME280;21812;55.536;37.664;2023-04-27T02:06:35;99076.94;;;10.97;59.08
35694;BME280;21812;55.536;37.664;2023-04-27T02:09:01;99082.78;;;11.32;64.17
35694;BME280;21812;55.536;37.664;2023-04-27T02:11:26;99085.09;;;11.81;62.28
35694;BME280;21812;55.536;37.664;2023-04-27T02:13:54;99077.28;;;11.72;58.57
35694;BME280;21812;55.536;37.664;2023-04-27T02:16:49;99090.97;;;11.51;58.07
35694;BME280;21812;55.536;37.664;2023-04-27T02:19:14;99086.91;;;11.35;59.09
35694;BME280;21812;55.536;37.664;2023-04-27T02:21:41;99077.25;;;11.34;59.32
35694;BME280;21812;55.536;37.664;2023-04-27T02:24:08;99051.19;;;11.09;59.68
35694;BME280;21812;55.536;37.664;2023-04-27T02:26:34;99087.69;;;11.49;60.05
35694;BME280;21812;55.536;37.664;2023-04-27T02:29:02;99086.72;;;11.82;60.50
35694;BME280;21812;55.536;37.664;2023-04-27T02:31:29;99087.13;;;11.92;58.09
35694;BME280;21812;55.536;37.664;2023-04-27T02:33:55;99087.56;;;11.76;57.85
35694;BME280;21812;55.536;37.664;2023-04-27T02:36:24;99093.84;;;11.49;58.61
35694;BME280;21812;55.536;37.664;2023-04-27T02:38:50;99090.16;;;11.50;61.14
35694;BME280;21812;55.536;37.664;2023-04-27T02:41:16;99092.16;;;12.07;62.12
35694;BME280;21812;55.536;37.664;2023-04-27T02:43:41;99084.78;;;12.34;59.10
35694;BME280;21812;55.536;37.664;2023-04-27T02:46:07;99093.31;;;12.24;57.59
35694;BME280;21812;55.536;37.664;2023-04-27T02:48:33;99094.81;;;12.07;58.01
35694;BME280;21812;55.536;37.664;2023-04-27T02:51:02;99106.16;;;12.09;60.44
35694;BME280;21812;55.536;37.664;2023-04-27T02:53:28;99104.13;;;12.04;59.12
35694;BME280;21812;55.536;37.664;2023-04-27T02:55:54;99109.13;;;12.26;59.66
35694;BME280;21812;55.536;37.664;2023-04-27T02:58:20;99110.28;;;12.05;57.74
35694;BME280;21812;55.536;37.664;2023-04-27T03:00:52;99121.44;;;12.02;59.35
35694;BME280;21812;55.536;37.664;2023-04-27T03:03:18;99119.25;;;11.79;59.43
35694;BME280;21812;55.536;37.664;2023-04-27T03:05:44;99121.28;;;11.90;59.99
35694;BME280;21812;55.536;37.664;2023-04-27T03:08:11;99117.09;;;12.07;60.82
35694;BME280;21812;55.536;37.664;2023-04-27T03:10:36;99125.25;;;12.51;60.91
35694;BME280;21812;55.536;37.664;2023-04-27T03:13:02;99122.19;;;12.98;59.94
35694;BME280;21812;55.536;37.664;2023-04-27T03:15:28;99117.75;;;12.85;59.16
35694;BME280;21812;55.536;37.664;2023-04-27T03:17:53;99126.34;;;12.94;59.12
35694;BME280;21812;55.536;37.664;2023-04-27T03:20:20;99120.56;;;12.97;58.41
35694;BME280;21812;55.536;37.664;2023-04-27T03:22:46;99123.84;;;12.99;58.73
35694;BME280;21812;55.536;37.664;2023-04-27T03:25:12;99126.22;;;13.07;58.81
35694;BME280;21812;55.536;37.664;2023-04-27T03:27:38;99127.63;;;13.35;58.82
35694;BME280;21812;55.536;37.664;2023-04-27T03:30:04;99125.97;;;13.71;58.46
35694;BME280;21812;55.536;37.664;2023-04-27T03:32:30;99130.09;;;13.55;58.24
35694;BME280;21812;55.536;37.664;2023-04-27T03:34:56;99137.16;;;13.49;57.98
35694;BME280;21812;55.536;37.664;2023-04-27T03:37:22;99140.09;;;13.22;58.50
35694;BME280;21812;55.536;37.664;2023-04-27T03:39:47;99146.09;;;13.43;61.92
35694;BME280;21812;55.536;37.664;2023-04-27T03:42:13;99145.81;;;13.69;62.39
35694;BME280;21812;55.536;37.664;2023-04-27T03:44:39;99147.31;;;14.14;65.68
35694;BME280;21812;55.536;37.664;2023-04-27T03:47:06;99149.41;;;14.42;68.50
35694;BME280;21812;55.536;37.664;2023-04-27T03:49:34;99150.19;;;14.73;69.49
35694;BME280;21812;55.536;37.664;2023-04-27T03:52:01;99149.19;;;14.98;67.35
35694;BME280;21812;55.536;37.664;2023-04-27T03:54:29;99152.34;;;15.18;65.23
35694;BME280;21812;55.536;37.664;2023-04-27T03:56:55;99166.13;;;15.34;64.47
35694;BME280;21812;55.536;37.664;2023-04-27T03:59:22;99155.50;;;15.39;63.33
35694;BME280;21812;55.536;37.664;2023-04-27T04:01:48;99149.63;;;15.42;62.71
35694;BME280;21812;55.536;37.664;2023-04-27T04:04:14;99149.63;;;15.66;62.12
35694;BME280;21812;55.536;37.664;2023-04-27T04:06:41;99150.31;;;15.85;60.80
35694;BME280;21812;55.536;37.664;2023-04-27T04:09:06;99153.59;;;15.87;59.80
35694;BME280;21812;55.536;37.664;2023-04-27T04:11:32;99165.16;;;15.87;58.98
35694;BME280;21812;55.536;37.664;2023-04-27T04:14:00;99171.13;;;15.89;61.63
35694;BME280;21812;55.536;37.664;2023-04-27T04:16:26;99172.78;;;15.90;61.55
35694;BME280;21812;55.536;37.664;2023-04-27T04:18:52;99165.28;;;15.92;58.94
35694;BME280;21812;55.536;37.664;2023-04-27T04:21:18;99174.47;;;16.08;61.71
35694;BME280;21812;55.536;37.664;2023-04-27T04:23:44;99161.22;;;16.18;60.02
35694;BME280;21812;55.536;37.664;2023-04-27T04:26:10;99165.81;;;16.35;61.47
35694;BME280;21812;55.536;37.664;2023-04-27T04:28:36;99165.06;;;16.22;57.05
35694;BME280;21812;55.536;37.664;2023-04-27T04:31:03;99167.69;;;16.06;58.39
35694;BME280;21812;55.536;37.664;2023-04-27T04:33:30;99170.91;;;15.79;56.59
35694;BME280;21812;55.536;37.664;2023-04-27T04:35:57;99175.22;;;15.68;56.48
35694;BME280;21812;55.536;37.664;2023-04-27T04:38:23;99175.22;;;15.68;58.02
35694;BME280;21812;55.536;37.664;2023-04-27T04:40:49;99165.09;;;15.47;56.53
35694;BME280;21812;55.536;37.664;2023-04-27T04:43:17;99169.91;;;15.33;56.33
35694;BME280;21812;55.536;37.664;2023-04-27T04:45:43;99181.00;;;15.13;55.69
35694;BME280;21812;55.536;37.664;2023-04-27T04:48:13;99162.63;;;14.98;56.63
35694;BME280;21812;55.536;37.664;2023-04-27T04:50:39;99181.00;;;15.13;56.63
35694;BME280;21812;55.536;37.664;2023-04-27T04:53:06;99180.19;;;15.00;56.66
35694;BME280;21812;55.536;37.664;2023-04-27T04:55:32;99190.28;;;14.75;56.48
35694;BME280;21812;55.536;37.664;2023-04-27T04:57:58;99178.34;;;14.40;57.08
35694;BME280;21812;55.536;37.664;2023-04-27T05:00:26;99178.50;;;14.15;58.01
35694;BME280;21812;55.536;37.664;2023-04-27T05:02:52;99184.19;;;14.07;59.32
35694;BME280;21812;55.536;37.664;2023-04-27T05:05:18;99186.22;;;14.23;60.35
35694;BME280;21812;55.536;37.664;2023-04-27T05:07:43;99183.31;;;14.55;61.05
35694;BME280;21812;55.536;37.664;2023-04-27T05:10:10;99180.47;;;14.69;58.91
35694;BME280;21812;55.536;37.664;2023-04-27T05:12:35;99179.44;;;14.51;58.81
35694;BME280;21812;55.536;37.664;2023-04-27T05:15:01;99185.63;;;14.52;58.57
35694;BME280;21812;55.536;37.664;2023-04-27T05:17:34;99190.78;;;14.83;60.76
35694;BME280;21812;55.536;37.664;2023-04-27T05:19:59;99190.72;;;15.25;61.47
35694;BME280;21812;55.536;37.664;2023-04-27T05:22:25;99180.16;;;15.36;57.78
35694;BME280;21812;55.536;37.664;2023-04-27T05:24:51;99191.06;;;15.76;60.17
35694;BME280;21812;55.536;37.664;2023-04-27T05:27:17;99190.78;;;16.01;60.01
35694;BME280;21812;55.536;37.664;2023-04-27T05:29:42;99194.13;;;16.09;56.07
35694;BME280;21812;55.536;37.664;2023-04-27T05:32:08;99186.09;;;16.26;58.72
35694;BME280;21812;55.536;37.664;2023-04-27T05:34:34;99194.00;;;16.44;59.76
35694;BME280;21812;55.536;37.664;2023-04-27T05:37:01;99186.75;;;16.61;59.66
35694;BME280;21812;55.536;37.664;2023-04-27T05:39:26;99190.56;;;16.77;60.34
35694;BME280;21812;55.536;37.664;2023-04-27T05:41:52;99194.50;;;16.87;57.98
35694;BME280;21812;55.536;37.664;2023-04-27T05:44:18;99192.22;;;16.95;59.70
35694;BME280;21812;55.536;37.664;2023-04-27T05:46:44;99198.28;;;16.86;56.08
35694;BME280;21812;55.536;37.664;2023-04-27T05:49:10;99201.63;;;16.93;62.10
35694;BME280;21812;55.536;37.664;2023-04-27T05:51:36;99198.94;;;17.10;61.94
35694;BME280;21812;55.536;37.664;2023-04-27T05:54:03;99200.97;;;17.19;61.26
35694;BME280;21812;55.536;37.664;2023-04-27T05:56:29;99194.91;;;17.46;64.12
35694;BME280;21812;55.536;37.664;2023-04-27T05:58:55;99192.97;;;17.64;61.53
35694;BME280;21812;55.536;37.664;2023-04-27T06:01:21;99188.28;;;17.76;60.39
35694;BME280;21812;55.536;37.664;2023-04-27T06:03:48;99188.84;;;17.78;57.16
35694;BME280;21812;55.536;37.664;2023-04-27T06:06:14;99188.84;;;17.78;56.75
35694;BME280;21812;55.536;37.664;2023-04-27T06:08:39;99186.31;;;17.88;57.61
35694;BME280;21812;55.536;37.664;2023-04-27T06:11:05;99188.31;;;17.98;57.05
35694;BME280;21812;55.536;37.664;2023-04-27T06:13:31;99191.28;;;17.96;56.20
35694;BME280;21812;55.536;37.664;2023-04-27T06:15:59;99194.19;;;17.90;54.06
35694;BME280;21812;55.536;37.664;2023-04-27T06:18:25;99182.78;;;18.10;55.60
35694;BME280;21812;55.536;37.664;2023-04-27T06:20:51;99194.53;;;18.21;53.93
35694;BME280;21812;55.536;37.664;2023-04-27T06:23:17;99185.25;;;18.39;54.47
35694;BME280;21812;55.536;37.664;2023-04-27T06:25:43;99195.09;;;18.50;53.49
35694;BME280;21812;55.536;37.664;2023-04-27T06:28:08;99188.69;;;18.56;52.66
35694;BME280;21812;55.536;37.664;2023-04-27T06:30:34;99163.06;;;18.36;50.96
35694;BME280;21812;55.536;37.664;2023-04-27T06:33:00;99190.69;;;18.66;51.83
35694;BME280;21812;55.536;37.664;2023-04-27T06:35:26;99189.50;;;18.84;51.10
35694;BME280;21812;55.536;37.664;2023-04-27T06:37:52;99193.09;;;18.89;50.34
35694;BME280;21812;55.536;37.664;2023-04-27T06:40:18;99200.38;;;18.89;49.96
35694;BME280;21812;55.536;37.664;2023-04-27T06:42:43;99199.28;;;18.90;49.89
35694;BME280;21812;55.536;37.664;2023-04-27T06:45:09;99205.00;;;18.66;49.77
35694;BME280;21812;55.536;37.664;2023-04-27T06:47:36;99211.94;;;18.57;50.80
35694;BME280;21812;55.536;37.664;2023-04-27T06:50:01;99206.81;;;18.83;51.26
35694;BME280;21812;55.536;37.664;2023-04-27T06:52:31;99209.38;;;19.00;50.61
35694;BME280;21812;55.536;37.664;2023-04-27T06:54:57;99209.63;;;19.30;50.44
35694;BME280;21812;55.536;37.664;2023-04-27T06:57:23;99199.53;;;19.58;49.94
35694;BME280;21812;55.536;37.664;2023-04-27T06:59:50;99183.03;;;19.60;49.05
35694;BME280;21812;55.536;37.664;2023-04-27T07:02:15;99208.88;;;19.78;47.92
35694;BME280;21812;55.536;37.664;2023-04-27T07:04:41;99211.56;;;19.35;46.64
35694;BME280;21812;55.536;37.664;2023-04-27T07:07:07;99201.94;;;19.54;48.87
35694;BME280;21812;55.536;37.664;2023-04-27T07:09:33;99204.09;;;19.15;47.86
35694;BME280;21812;55.536;37.664;2023-04-27T07:11:59;99200.97;;;18.69;46.99
35694;BME280;21812;55.536;37.664;2023-04-27T07:14:26;99209.91;;;18.42;46.69
35694;BME280;21812;55.536;37.664;2023-04-27T07:16:51;99205.13;;;18.27;47.29
35694;BME280;21812;55.536;37.664;2023-04-27T07:19:17;99199.88;;;18.15;48.17
35694;BME280;21812;55.536;37.664;2023-04-27T07:21:43;99207.00;;;18.00;47.97
35694;BME280;21812;55.536;37.664;2023-04-27T07:24:09;99203.56;;;17.87;49.37
35694;BME280;21812;55.536;37.664;2023-04-27T07:26:34;99205.03;;;17.78;49.54
35694;BME280;21812;55.536;37.664;2023-04-27T07:29:00;99217.84;;;17.66;48.45
35694;BME280;21812;55.536;37.664;2023-04-27T07:31:26;99218.13;;;17.47;47.85
35694;BME280;21812;55.536;37.664;2023-04-27T07:33:52;99219.19;;;17.46;47.60
35694;BME280;21812;55.536;37.664;2023-04-27T07:36:19;99225.88;;;17.44;49.43
35694;BME280;21812;55.536;37.664;2023-04-27T07:38:45;99226.72;;;17.44;49.90
35694;BME280;21812;55.536;37.664;2023-04-27T07:41:10;99219.44;;;17.45;48.73
35694;BME280;21812;55.536;37.664;2023-04-27T07:43:36;99215.94;;;17.44;48.73
35694;BME280;21812;55.536;37.664;2023-04-27T07:46:02;99221.16;;;17.34;49.34
35694;BME280;21812;55.536;37.664;2023-04-27T07:48:28;99229.56;;;17.37;49.15
35694;BME280;21812;55.536;37.664;2023-04-27T07:50:55;99225.56;;;17.40;49.53
35694;BME280;21812;55.536;37.664;2023-04-27T07:53:22;99221.91;;;17.46;49.78
35694;BME280;21812;55.536;37.664;2023-04-27T07:55:48;99220.09;;;17.52;50.01
35694;BME280;21812;55.536;37.664;2023-04-27T07:58:14;99204.81;;;17.41;50.42
35694;BME280;21812;55.536;37.664;2023-04-27T08:00:40;99230.13;;;17.56;48.11
35694;BME280;21812;55.536;37.664;2023-04-27T08:03:06;99226.06;;;17.54;48.12
35694;BME280;21812;55.536;37.664;2023-04-27T08:05:33;99232.25;;;17.54;48.54
35694;BME280;21812;55.536;37.664;2023-04-27T08:07:59;99226.38;;;17.57;48.34
35694;BME280;21812;55.536;37.664;2023-04-27T08:10:25;99229.13;;;17.63;47.85
35694;BME280;21812;55.536;37.664;2023-04-27T08:12:51;99220.31;;;17.67;48.80
35694;BME280;21812;55.536;37.664;2023-04-27T08:15:16;99214.91;;;17.67;48.21
35694;BME280;21812;55.536;37.664;2023-04-27T08:17:42;99223.38;;;17.76;47.11
35694;BME280;21812;55.536;37.664;2023-04-27T08:20:09;99227.63;;;17.89;47.14
35694;BME280;21812;55.536;37.664;2023-04-27T08:22:37;99216.47;;;18.02;47.56
35694;BME280;21812;55.536;37.664;2023-04-27T08:25:03;99222.03;;;18.17;48.73
35694;BME280;21812;55.536;37.664;2023-04-27T08:27:29;99214.81;;;18.23;47.35
35694;BME280;21812;55.536;37.664;2023-04-27T08:29:55;99223.56;;;18.30;46.89
35694;BME280;21812;55.536;37.664;2023-04-27T08:32:21;99220.38;;;18.33;46.69
35694;BME280;21812;55.536;37.664;2023-04-27T08:34:47;99219.03;;;18.36;46.24
35694;BME280;21812;55.536;37.664;2023-04-27T08:37:13;99229.06;;;18.41;46.29
35694;BME280;21812;55.536;37.664;2023-04-27T08:39:38;99215.94;;;18.49;44.38
35694;BME280;21812;55.536;37.664;2023-04-27T08:42:11;99217.66;;;18.61;45.34
35694;BME280;21812;55.536;37.664;2023-04-27T08:44:41;99215.31;;;18.69;45.77
35694;BME280;21812;55.536;37.664;2023-04-27T08:47:07;99227.38;;;18.84;45.34
35694;BME280;21812;55.536;37.664;2023-04-27T08:49:36;99222.03;;;18.89;43.84
35694;BME280;21812;55.536;37.664;2023-04-27T08:52:15;99220.44;;;18.93;42.41
35694;BME280;21812;55.536;37.664;2023-04-27T08:54:41;99216.34;;;18.90;41.16
35694;BME280;21812;55.536;37.664;2023-04-27T08:57:12;99225.41;;;19.06;41.99
35694;BME280;21812;55.536;37.664;2023-04-27T08:59:41;99225.94;;;19.03;40.79
35694;BME280;21812;55.536;37.664;2023-04-27T09:02:21;99229.28;;;19.16;41.49
35694;BME280;21812;55.536;37.664;2023-04-27T09:04:46;99221.97;;;19.16;41.40
35694;BME280;21812;55.536;37.664;2023-04-27T09:07:13;99226.69;;;19.31;41.28
35694;BME280;21812;55.536;37.664;2023-04-27T09:09:39;99224.13;;;19.51;41.47
35694;BME280;21812;55.536;37.664;2023-04-27T09:12:18;99214.53;;;19.76;41.81
35694;BME280;21812;55.536;37.664;2023-04-27T09:15:01;99215.75;;;19.96;40.60
35694;BME280;21812;55.536;37.664;2023-04-27T09:17:32;99223.38;;;20.09;39.80
35694;BME280;21812;55.536;37.664;2023-04-27T09:20:08;99218.25;;;20.13;39.73
35694;BME280;21812;55.536;37.664;2023-04-27T09:22:45;99217.97;;;20.14;39.26
35694;BME280;21812;55.536;37.664;2023-04-27T09:25:32;99224.47;;;20.13;39.15
35694;BME280;21812;55.536;37.664;2023-04-27T09:27:59;99230.94;;;20.02;38.73
35694;BME280;21812;55.536;37.664;2023-04-27T09:30:26;99229.28;;;20.01;39.09
35694;BME280;21812;55.536;37.664;2023-04-27T09:32:57;99218.19;;;20.02;39.05
35694;BME280;21812;55.536;37.664;2023-04-27T09:35:31;99196.78;;;19.96;41.18
35694;BME280;21812;55.536;37.664;2023-04-27T09:37:57;99243.16;;;20.09;38.47
35694;BME280;21812;55.536;37.664;2023-04-27T09:40:25;99198.91;;;19.88;39.63
35694;BME280;21812;55.536;37.664;2023-04-27T09:42:59;99227.72;;;20.10;39.25
35694;BME280;21812;55.536;37.664;2023-04-27T09:45:26;99219.91;;;20.19;39.33
35694;BME280;21812;55.536;37.664;2023-04-27T09:47:52;99217.47;;;20.27;38.95
35694;BME280;21812;55.536;37.664;2023-04-27T09:50:18;99215.09;;;20.46;38.39
35694;BME280;21812;55.536;37.664;2023-04-27T09:52:47;99209.47;;;20.68;40.00
35694;BME280;21812;55.536;37.664;2023-04-27T09:55:16;99210.88;;;20.97;39.78
35694;BME280;21812;55.536;37.664;2023-04-27T09:57:52;99202.19;;;21.10;37.46
35694;BME280;21812;55.536;37.664;2023-04-27T10:03:40;99200.16;;;20.34;37.48
35694;BME280;21812;55.536;37.664;2023-04-27T10:09:12;99221.09;;;19.85;38.60
35694;BME280;21812;55.536;37.664;2023-04-27T10:11:40;99222.66;;;19.76;38.78
35694;BME280;21812;55.536;37.664;2023-04-27T10:14:09;99239.38;;;19.68;38.86
35694;BME280;21812;55.536;37.664;2023-04-27T10:16:49;99214.88;;;19.42;38.67
35694;BME280;21812;55.536;37.664;2023-04-27T10:19:16;99236.78;;;19.41;38.52
35694;BME280;21812;55.536;37.664;2023-04-27T10:22:00;99251.63;;;19.33;39.01
35694;BME280;21812;55.536;37.664;2023-04-27T10:24:35;99234.81;;;18.99;40.29
35694;BME280;21812;55.536;37.664;2023-04-27T10:27:05;99263.34;;;19.11;39.93
35694;BME280;21812;55.536;37.664;2023-04-27T10:29:37;99263.09;;;18.86;43.12
35694;BME280;21812;55.536;37.664;2023-04-27T10:32:08;99295.94;;;18.50;45.60
35694;BME280;21812;55.536;37.664;2023-04-27T10:34:35;99296.63;;;17.96;48.98
35694;BME280;21812;55.536;37.664;2023-04-27T10:37:09;99290.31;;;17.40;50.52
35694;BME280;21812;55.536;37.664;2023-04-27T10:39:36;99314.22;;;17.48;50.70
35694;BME280;21812;55.536;37.664;2023-04-27T10:42:02;99354.47;;;17.04;56.45
35694;BME280;21812;55.536;37.664;2023-04-27T10:44:30;99368.97;;;16.74;56.25
35694;BME280;21812;55.536;37.664;2023-04-27T10:47:01;99303.78;;;16.37;56.84
35694;BME280;21812;55.536;37.664;2023-04-27T10:49:37;99326.38;;;16.48;57.14
35694;BME280;21812;55.536;37.664;2023-04-27T10:52:02;99312.44;;;16.39;60.30
35694;BME280;21812;55.536;37.664;2023-04-27T10:54:30;99299.91;;;16.45;61.74
35694;BME280;21812;55.536;37.664;2023-04-27T10:57:07;99288.38;;;16.61;63.94
35694;BME280;21812;55.536;37.664;2023-04-27T10:59:34;99293.34;;;17.61;64.53
35694;BME280;21812;55.536;37.664;2023-04-27T11:02:01;99275.34;;;18.71;64.82
35694;BME280;21812;55.536;37.664;2023-04-27T11:04:38;99284.03;;;19.28;61.67
35694;BME280;21812;55.536;37.664;2023-04-27T11:07:06;99277.81;;;19.97;62.58
35694;BME280;21812;55.536;37.664;2023-04-27T11:09:37;99268.91;;;20.80;51.56
35694;BME280;21812;55.536;37.664;2023-04-27T11:12:07;99262.69;;;21.72;52.13
35694;BME280;21812;55.536;37.664;2023-04-27T11:14:37;99269.34;;;22.31;52.18
35694;BME280;21812;55.536;37.664;2023-04-27T11:17:03;99268.25;;;22.27;49.39
35694;BME280;21812;55.536;37.664;2023-04-27T11:19:29;99259.69;;;22.59;48.41
35694;BME280;21812;55.536;37.664;2023-04-27T11:22:05;99258.94;;;22.93;46.14
35694;BME280;21812;55.536;37.664;2023-04-27T11:24:32;99261.03;;;23.01;46.26
35694;BME280;21812;55.536;37.664;2023-04-27T11:26:58;99260.03;;;23.32;44.51
35694;BME280;21812;55.536;37.664;2023-04-27T11:29:24;99260.38;;;23.84;44.90
35694;BME280;21812;55.536;37.664;2023-04-27T11:31:50;99248.25;;;23.95;48.19
35694;BME280;21812;55.536;37.664;2023-04-27T11:34:18;99256.19;;;24.15;46.80
35694;BME280;21812;55.536;37.664;2023-04-27T11:36:58;99240.28;;;24.23;46.66
35694;BME280;21812;55.536;37.664;2023-04-27T11:39:37;99243.56;;;24.44;42.82
35694;BME280;21812;55.536;37.664;2023-04-27T11:42:19;99237.81;;;25.21;40.99
35694;BME280;21812;55.536;37.664;2023-04-27T11:44:56;99233.06;;;25.87;37.74
35694;BME280;21812;55.536;37.664;2023-04-27T11:47:27;99208.78;;;26.13;37.66
35694;BME280;21812;55.536;37.664;2023-04-27T11:49:58;99221.09;;;26.52;34.21
35694;BME280;21812;55.536;37.664;2023-04-27T11:52:28;99222.38;;;26.91;35.10
35694;BME280;21812;55.536;37.664;2023-04-27T11:54:54;99223.50;;;26.68;32.69
35694;BME280;21812;55.536;37.664;2023-04-27T11:57:32;99226.09;;;26.73;35.49
35694;BME280;21812;55.536;37.664;2023-04-27T12:00:00;99219.16;;;26.89;32.17
35694;BME280;21812;55.536;37.664;2023-04-27T12:02:29;99213.47;;;26.63;32.36
35694;BME280;21812;55.536;37.664;2023-04-27T12:04:57;99182.13;;;26.56;33.02
35694;BME280;21812;55.536;37.664;2023-04-27T12:07:23;99212.19;;;26.33;31.72
35694;BME280;21812;55.536;37.664;2023-04-27T12:09:49;99213.50;;;26.86;31.84
35694;BME280;21812;55.536;37.664;2023-04-27T12:12:15;99204.59;;;27.25;29.59
35694;BME280;21812;55.536;37.664;2023-04-27T12:14:47;99189.22;;;27.78;30.12
35694;BME280;21812;55.536;37.664;2023-04-27T12:17:13;99192.31;;;28.52;29.96
35694;BME280;21812;55.536;37.664;2023-04-27T12:19:38;99184.03;;;29.04;28.80
35694;BME280;21812;55.536;37.664;2023-04-27T12:22:04;99196.44;;;29.28;28.76
35694;BME280;21812;55.536;37.664;2023-04-27T12:24:30;99185.94;;;29.77;26.28
35694;BME280;21812;55.536;37.664;2023-04-27T12:26:57;99184.50;;;30.72;25.25
35694;BME280;21812;55.536;37.664;2023-04-27T12:29:22;99183.78;;;30.63;24.41
35694;BME280;21812;55.536;37.664;2023-04-27T12:31:49;99188.34;;;30.80;23.40
35694;BME280;21812;55.536;37.664;2023-04-27T12:34:15;99180.41;;;30.78;23.93
35694;BME280;21812;55.536;37.664;2023-04-27T12:36:41;99180.16;;;31.38;24.22
35694;BME280;21812;55.536;37.664;2023-04-27T12:39:21;99181.13;;;31.91;22.01
35694;BME280;21812;55.536;37.664;2023-04-27T12:41:48;99177.91;;;31.52;24.55
35694;BME280;21812;55.536;37.664;2023-04-27T12:44:15;99181.69;;;31.97;23.76
35694;BME280;21812;55.536;37.664;2023-04-27T12:46:42;99184.91;;;31.50;24.95
35694;BME280;21812;55.536;37.664;2023-04-27T12:49:08;99187.69;;;29.81;26.01
35694;BME280;21812;55.536;37.664;2023-04-27T12:51:35;99194.72;;;28.97;28.36
35694;BME280;21812;55.536;37.664;2023-04-27T12:54:04;99188.16;;;30.43;24.24
35694;BME280;21812;55.536;37.664;2023-04-27T12:56:31;99180.28;;;30.75;24.36
35694;BME280;21812;55.536;37.664;2023-04-27T12:58:57;99179.28;;;30.79;25.84